Time;durP1;ratioP1;P1;durP2;ratioP2;P2;SDS_P1;SDS_P2;PMS_P1;PMS_P2;Temp;Humidity;BMP_temperature;BMP_pressure;BME280_temperature;BME280_humidity;BME280_pressure;Samples;Min_cycle;Max_cycle;Signal;HPM_P1;HPM_P2
2023/05/14 00:01:37;;;;;;;17.77;14.70;;;9.60;99.90;;;;;;5046917;28;20483;-77
2023/05/14 00:04:05;;;;;;;17.17;15.40;;;9.60;99.90;;;;;;5035747;28;20582;-77
2023/05/14 00:06:32;;;;;;;18.40;14.27;;;9.60;99.90;;;;;;5035341;28;20581;-77
2023/05/14 00:08:59;;;;;;;17.70;14.33;;;9.60;99.90;;;;;;5036246;28;20436;-77
2023/05/14 00:11:26;;;;;;;18.90;16.13;;;9.60;99.90;;;;;;5038014;28;20537;-80
2023/05/14 00:13:53;;;;;;;18.83;16.73;;;9.60;99.90;;;;;;5038716;28;20783;-76
2023/05/14 00:16:20;;;;;;;18.43;16.03;;;9.60;99.90;;;;;;5038551;28;20435;-76
2023/05/14 00:18:48;;;;;;;19.83;15.77;;;9.60;99.90;;;;;;5043395;28;20445;-78
2023/05/14 00:21:16;;;;;;;21.07;15.50;;;9.50;99.90;;;;;;5041514;28;20542;-79
2023/05/14 00:23:43;;;;;;;20.80;15.37;;;9.60;99.90;;;;;;5042490;28;20488;-77
2023/05/14 00:26:09;;;;;;;22.70;15.80;;;9.60;99.90;;;;;;5043150;28;20920;-79
2023/05/14 00:28:36;;;;;;;18.50;14.77;;;9.60;99.90;;;;;;5041209;28;20515;-79
2023/05/14 00:31:04;;;;;;;19.10;16.70;;;9.60;99.90;;;;;;5043721;28;20881;-78
2023/05/14 00:33:31;;;;;;;20.87;16.53;;;9.60;99.90;;;;;;5043601;28;20971;-78
2023/05/14 00:35:59;;;;;;;16.83;15.00;;;9.60;99.90;;;;;;5045488;28;20437;-77
2023/05/14 00:38:27;;;;;;;17.70;15.80;;;9.60;99.90;;;;;;5044446;28;20478;-77
2023/05/14 00:40:54;;;;;;;17.33;14.57;;;9.60;99.90;;;;;;5034166;28;20956;-79
2023/05/14 00:43:22;;;;;;;29.57;17.50;;;9.50;99.90;;;;;;5031065;28;20507;-77
2023/05/14 00:45:51;;;;;;;23.83;15.07;;;9.60;99.90;;;;;;5040732;28;20994;-77
2023/05/14 00:48:19;;;;;;;17.80;16.00;;;9.60;99.90;;;;;;5038334;28;20441;-77
2023/05/14 00:50:46;;;;;;;21.57;16.67;;;9.60;99.90;;;;;;5039237;28;20445;-77
2023/05/14 00:53:15;;;;;;;21.63;18.27;;;9.60;99.90;;;;;;5041075;28;20461;-78
2023/05/14 00:55:43;;;;;;;18.40;15.60;;;9.60;99.90;;;;;;5036391;28;20476;-77
2023/05/14 00:58:12;;;;;;;23.33;16.70;;;9.60;99.90;;;;;;5038448;28;20960;-77
2023/05/14 01:00:39;;;;;;;17.93;15.20;;;9.60;99.90;;;;;;5039806;28;20520;-78
2023/05/14 01:03:08;;;;;;;19.67;15.93;;;9.60;99.90;;;;;;5040629;28;20474;-77
2023/05/14 01:05:43;;;;;;;18.17;15.97;;;9.60;99.90;;;;;;5045955;28;20539;-78
2023/05/14 01:08:18;;;;;;;22.43;15.23;;;9.60;99.90;;;;;;5043465;28;20442;-77
2023/05/14 01:10:51;;;;;;;23.33;15.50;;;9.50;99.90;;;;;;5047562;28;21137;-77
2023/05/14 01:13:24;;;;;;;17.90;15.90;;;9.50;99.90;;;;;;5044956;28;20446;-79
2023/05/14 01:15:51;;;;;;;18.63;16.67;;;9.50;99.90;;;;;;5046009;28;20472;-77
2023/05/14 01:18:19;;;;;;;19.73;15.57;;;9.50;99.90;;;;;;5044988;28;20457;-77
2023/05/14 01:20:46;;;;;;;21.33;17.13;;;9.50;99.90;;;;;;5040621;28;20455;-77
2023/05/14 01:23:14;;;;;;;22.47;17.40;;;9.50;99.90;;;;;;5038226;28;20478;-77
2023/05/14 01:25:42;;;;;;;19.53;16.37;;;9.50;99.90;;;;;;5047109;28;20453;-77
2023/05/14 01:28:16;;;;;;;23.83;16.13;;;9.50;99.90;;;;;;5043376;28;20867;-77
2023/05/14 01:30:48;;;;;;;20.20;16.67;;;9.50;99.90;;;;;;5042037;28;20456;-81
2023/05/14 01:33:18;;;;;;;19.53;16.53;;;9.50;99.90;;;;;;5042503;28;20458;-78
2023/05/14 01:35:46;;;;;;;17.13;15.40;;;9.40;99.90;;;;;;5041588;28;20961;-78
2023/05/14 01:38:17;;;;;;;21.00;15.43;;;9.40;99.90;;;;;;5043338;28;21143;-80
2023/05/14 01:40:46;;;;;;;17.90;15.50;;;9.40;99.90;;;;;;5044038;28;20503;-76
2023/05/14 01:43:13;;;;;;;19.10;15.67;;;9.40;99.90;;;;;;5043001;28;22398;-77
2023/05/14 01:45:41;;;;;;;19.60;16.73;;;9.40;99.90;;;;;;5045268;28;20441;-80
2023/05/14 01:48:08;;;;;;;21.00;16.50;;;9.30;99.90;;;;;;5045192;28;20581;-81
2023/05/14 01:50:35;;;;;;;18.77;16.47;;;9.30;99.90;;;;;;5036086;28;20483;-77
2023/05/14 01:53:02;;;;;;;18.17;15.27;;;9.20;99.90;;;;;;5040054;28;20453;-77
2023/05/14 01:55:30;;;;;;;20.20;16.40;;;9.20;99.90;;;;;;5042580;28;20948;-81
2023/05/14 01:57:57;;;;;;;16.20;14.50;;;9.20;99.90;;;;;;5041387;28;20836;-77
2023/05/14 02:00:25;;;;;;;19.93;16.60;;;9.20;99.90;;;;;;5038891;28;20933;-76
2023/05/14 02:02:52;;;;;;;20.73;15.20;;;9.10;99.90;;;;;;5041372;28;20468;-77
2023/05/14 02:05:19;;;;;;;21.37;16.70;;;9.10;99.90;;;;;;5040984;28;20468;-77
2023/05/14 02:07:46;;;;;;;18.87;16.20;;;9.00;99.90;;;;;;5035315;28;20437;-80
2023/05/14 02:10:13;;;;;;;23.97;18.30;;;9.00;99.90;;;;;;5043579;28;20935;-80
2023/05/14 02:12:41;;;;;;;18.20;14.07;;;8.90;99.90;;;;;;5040586;28;20924;-77
2023/05/14 02:15:09;;;;;;;19.63;15.80;;;8.90;99.90;;;;;;5039276;28;20542;-78
2023/05/14 02:17:36;;;;;;;20.30;16.80;;;8.90;99.90;;;;;;5043524;28;21115;-77
2023/05/14 02:20:04;;;;;;;20.43;18.20;;;8.90;99.90;;;;;;5037264;28;20450;-79
2023/05/14 02:22:31;;;;;;;20.87;16.93;;;8.90;99.90;;;;;;5037872;28;20507;-80
2023/05/14 02:24:58;;;;;;;20.80;16.07;;;8.80;99.90;;;;;;5039600;28;20493;-81
2023/05/14 02:27:25;;;;;;;24.53;17.97;;;8.80;99.90;;;;;;5039795;28;20433;-77
2023/05/14 02:29:55;;;;;;;24.07;16.27;;;8.80;99.90;;;;;;5036594;28;20932;-79
2023/05/14 02:32:22;;;;;;;22.87;16.93;;;8.80;99.90;;;;;;5032339;28;20522;-79
2023/05/14 02:34:49;;;;;;;25.53;17.90;;;8.80;99.90;;;;;;5039363;28;20437;-81
2023/05/14 02:37:16;;;;;;;23.57;20.13;;;8.80;99.90;;;;;;5042802;28;20821;-77
2023/05/14 02:39:43;;;;;;;23.70;17.33;;;8.80;99.90;;;;;;5044497;28;20457;-77
2023/05/14 02:42:09;;;;;;;23.60;17.50;;;8.80;99.90;;;;;;5042046;28;20490;-77
2023/05/14 02:44:37;;;;;;;23.60;19.80;;;8.90;99.90;;;;;;5037161;28;20521;-78
2023/05/14 02:47:06;;;;;;;25.10;19.50;;;8.90;99.90;;;;;;5043151;28;20528;-80
2023/05/14 02:49:32;;;;;;;19.73;17.10;;;8.90;99.90;;;;;;5030315;28;20788;-78
2023/05/14 02:52:00;;;;;;;25.50;20.00;;;9.00;99.90;;;;;;5040791;28;20438;-80
2023/05/14 02:54:28;;;;;;;24.10;19.50;;;9.00;99.90;;;;;;5032618;28;20472;-78
2023/05/14 02:56:55;;;;;;;25.57;19.83;;;9.10;99.90;;;;;;5046340;28;20449;-78
2023/05/14 02:59:22;;;;;;;28.27;17.90;;;9.10;99.90;;;;;;5039830;28;20449;-78
2023/05/14 03:01:49;;;;;;;21.90;17.97;;;9.20;99.90;;;;;;5041295;28;20457;-78
2023/05/14 03:04:18;;;;;;;22.10;19.70;;;9.20;99.90;;;;;;5040438;28;20837;-78
2023/05/14 03:06:44;;;;;;;25.70;19.73;;;9.30;99.90;;;;;;5038099;28;20462;-77
2023/05/14 03:09:11;;;;;;;24.07;18.10;;;9.40;99.90;;;;;;5037889;28;20991;-80
2023/05/14 03:11:38;;;;;;;20.87;17.87;;;9.40;99.90;;;;;;5035499;28;20514;-78
2023/05/14 03:14:05;;;;;;;22.57;18.60;;;9.40;99.90;;;;;;5039037;28;20535;-78
2023/05/14 03:16:32;;;;;;;21.20;17.23;;;9.40;99.90;;;;;;5038176;28;20441;-78
2023/05/14 03:18:59;;;;;;;23.50;18.87;;;9.40;99.90;;;;;;5038014;28;20526;-78
2023/05/14 03:21:28;;;;;;;20.40;15.63;;;9.40;99.90;;;;;;5041705;28;20871;-78
2023/05/14 03:23:55;;;;;;;24.00;17.47;;;9.40;99.90;;;;;;5045831;28;20531;-78
2023/05/14 03:26:22;;;;;;;21.20;17.30;;;9.40;99.90;;;;;;5044286;28;20445;-77
2023/05/14 03:28:50;;;;;;;19.03;14.87;;;9.40;99.90;;;;;;5041396;28;20518;-77
2023/05/14 03:31:17;;;;;;;19.43;16.60;;;9.40;99.90;;;;;;5047802;28;20441;-80
2023/05/14 03:33:44;;;;;;;20.50;16.60;;;9.40;99.90;;;;;;5046030;28;20737;-79
2023/05/14 03:36:11;;;;;;;19.70;16.17;;;9.40;99.90;;;;;;5043383;28;20445;-79
2023/05/14 03:38:39;;;;;;;18.70;15.20;;;9.40;99.90;;;;;;5045351;28;20445;-78
2023/05/14 03:41:06;;;;;;;17.97;16.07;;;9.50;99.90;;;;;;5039597;28;20474;-78
2023/05/14 03:43:33;;;;;;;17.40;15.60;;;9.50;99.90;;;;;;5035575;28;20468;-80
2023/05/14 03:46:00;;;;;;;17.93;15.60;;;9.60;99.90;;;;;;5037571;28;20553;-79
2023/05/14 03:48:27;;;;;;;15.17;13.37;;;9.60;99.90;;;;;;5044250;28;20566;-78
2023/05/14 03:50:54;;;;;;;19.60;13.93;;;9.50;99.90;;;;;;5038289;28;20457;-80
2023/05/14 03:53:21;;;;;;;19.47;15.73;;;9.50;99.90;;;;;;5035415;28;20535;-78
2023/05/14 03:55:50;;;;;;;16.50;14.77;;;9.50;99.90;;;;;;5040649;28;20442;-77
2023/05/14 03:58:17;;;;;;;15.93;13.37;;;9.50;99.90;;;;;;5041855;28;20454;-77
2023/05/14 04:00:44;;;;;;;16.93;13.57;;;9.50;99.90;;;;;;5043469;28;20465;-79
2023/05/14 04:03:11;;;;;;;16.07;13.33;;;9.50;99.90;;;;;;5038268;28;20520;-79
2023/05/14 04:05:38;;;;;;;17.60;14.97;;;9.50;99.90;;;;;;5047881;28;20887;-77
2023/05/14 04:08:05;;;;;;;15.53;13.90;;;9.60;99.90;;;;;;5043159;28;20987;-78
2023/05/14 04:10:32;;;;;;;15.30;13.70;;;9.60;99.90;;;;;;5045581;28;20448;-78
2023/05/14 04:13:00;;;;;;;16.33;13.83;;;9.70;99.90;;;;;;5046922;28;20434;-78
2023/05/14 04:15:27;;;;;;;14.23;12.70;;;9.70;99.90;;;;;;5038745;28;20462;-77
2023/05/14 04:17:54;;;;;;;18.80;13.53;;;9.70;99.90;;;;;;5036871;28;20441;-78
2023/05/14 04:20:21;;;;;;;14.57;12.93;;;9.80;99.90;;;;;;5041723;28;20522;-78
2023/05/14 04:22:48;;;;;;;15.23;13.63;;;9.90;99.90;;;;;;5047465;28;20438;-78
2023/05/14 04:25:17;;;;;;;14.43;12.93;;;10.00;99.90;;;;;;5043930;28;20509;-76
2023/05/14 04:27:44;;;;;;;14.57;13.10;;;10.00;99.90;;;;;;5041591;28;20465;-78
2023/05/14 04:30:13;;;;;;;15.57;12.60;;;10.00;99.90;;;;;;5043675;28;20438;-78
2023/05/14 04:32:40;;;;;;;15.20;13.57;;;10.00;99.90;;;;;;5045605;28;20445;-78
2023/05/14 04:35:09;;;;;;;14.70;13.13;;;10.10;99.90;;;;;;5051436;28;20469;-78
2023/05/14 04:37:36;;;;;;;16.40;13.67;;;10.10;99.90;;;;;;5054252;28;20505;-79
2023/05/14 04:40:03;;;;;;;15.70;14.07;;;10.10;99.90;;;;;;5050786;28;20437;-78
2023/05/14 04:42:30;;;;;;;15.83;12.90;;;10.20;99.90;;;;;;5053545;28;20453;-78
2023/05/14 04:44:57;;;;;;;18.20;14.70;;;10.20;99.90;;;;;;5045553;28;21111;-78
2023/05/14 04:47:26;;;;;;;14.10;12.60;;;10.30;99.90;;;;;;5042768;28;20500;-79
2023/05/14 04:49:53;;;;;;;16.10;14.37;;;10.40;99.90;;;;;;5044749;28;20452;-78
2023/05/14 04:52:20;;;;;;;14.27;12.77;;;10.40;99.90;;;;;;5045981;28;20449;-78
2023/05/14 04:54:47;;;;;;;13.67;12.37;;;10.40;99.90;;;;;;5045258;28;20469;-78
2023/05/14 04:57:14;;;;;;;13.93;12.30;;;10.50;99.90;;;;;;5044950;28;20520;-81
2023/05/14 04:59:41;;;;;;;15.80;13.50;;;10.60;99.90;;;;;;5045749;28;20611;-76
2023/05/14 05:02:08;;;;;;;15.60;14.00;;;10.60;99.90;;;;;;5045140;28;20523;-78
2023/05/14 05:04:36;;;;;;;14.50;13.07;;;10.60;99.90;;;;;;5041475;28;20485;-78
2023/05/14 05:07:04;;;;;;;15.77;14.13;;;10.60;99.90;;;;;;5044318;28;20869;-77
2023/05/14 05:09:31;;;;;;;15.40;13.27;;;10.60;99.90;;;;;;5044714;28;20850;-78
2023/05/14 05:12:00;;;;;;;14.53;13.07;;;10.60;99.90;;;;;;5037624;28;20434;-76
2023/05/14 05:14:27;;;;;;;17.47;14.80;;;10.70;99.90;;;;;;5045172;28;20948;-79
2023/05/14 05:16:54;;;;;;;13.30;11.90;;;10.60;99.90;;;;;;5031745;28;20830;-79
2023/05/14 05:19:21;;;;;;;13.70;12.30;;;10.60;99.90;;;;;;5035480;28;20963;-79
2023/05/14 05:21:50;;;;;;;13.97;12.70;;;10.70;99.90;;;;;;5030408;28;20446;-79
2023/05/14 05:24:17;;;;;;;15.40;12.90;;;10.70;99.90;;;;;;5041483;28;20501;-80
2023/05/14 05:26:44;;;;;;;14.03;12.63;;;10.80;99.90;;;;;;5040139;28;20470;-80
2023/05/14 05:29:10;;;;;;;16.87;13.37;;;10.90;99.90;;;;;;5037769;28;20545;-80
2023/05/14 05:31:38;;;;;;;14.40;13.10;;;10.90;99.90;;;;;;5040158;28;20453;-80
2023/05/14 05:34:05;;;;;;;15.37;12.37;;;10.90;99.90;;;;;;5037689;28;20445;-80
2023/05/14 05:36:32;;;;;;;15.00;13.30;;;11.00;99.90;;;;;;5041128;28;20461;-80
2023/05/14 05:39:00;;;;;;;13.00;11.70;;;11.10;99.90;;;;;;5043094;28;21233;-78
2023/05/14 05:41:28;;;;;;;14.17;12.57;;;11.20;99.90;;;;;;5040433;28;20516;-78
2023/05/14 05:43:55;;;;;;;15.97;14.37;;;11.30;99.90;;;;;;5031555;28;20493;-79
2023/05/14 05:46:22;;;;;;;14.90;13.40;;;11.40;99.90;;;;;;5051226;28;20485;-79
2023/05/14 05:48:49;;;;;;;13.63;12.23;;;11.50;99.90;;;;;;5046526;28;20505;-77
2023/05/14 05:51:16;;;;;;;13.30;12.10;;;11.60;99.90;;;;;;5047062;28;20523;-78
2023/05/14 05:53:43;;;;;;;13.97;12.67;;;11.50;99.90;;;;;;5048531;28;20450;-77
2023/05/14 05:56:11;;;;;;;13.70;12.30;;;11.60;99.90;;;;;;5046465;28;20473;-77
2023/05/14 05:58:39;;;;;;;14.00;12.67;;;11.60;99.90;;;;;;5044331;28;20506;-78
2023/05/14 06:01:06;;;;;;;14.00;12.70;;;11.60;99.90;;;;;;5045279;28;20540;-78
2023/05/14 06:03:33;;;;;;;12.53;11.30;;;11.70;99.90;;;;;;5046580;28;20532;-79
2023/05/14 06:06:00;;;;;;;13.33;11.70;;;11.80;99.90;;;;;;5044457;28;20472;-77
2023/05/14 06:08:27;;;;;;;14.23;12.83;;;11.80;99.90;;;;;;5037772;28;20527;-76
2023/05/14 06:10:54;;;;;;;15.13;13.67;;;11.70;99.90;;;;;;5044441;28;20518;-79
2023/05/14 06:13:22;;;;;;;12.50;11.20;;;11.80;99.90;;;;;;5036570;28;20493;-80
2023/05/14 06:15:49;;;;;;;12.23;11.03;;;11.90;99.90;;;;;;5046005;28;20456;-75
2023/05/14 06:18:16;;;;;;;15.07;13.43;;;11.90;99.90;;;;;;5044715;28;20535;-76
2023/05/14 06:20:43;;;;;;;13.70;12.50;;;11.90;99.90;;;;;;5045977;28;20518;-80
2023/05/14 06:23:11;;;;;;;12.83;11.40;;;12.00;99.90;;;;;;5040365;28;20519;-76
2023/05/14 06:25:37;;;;;;;12.80;11.50;;;11.90;99.90;;;;;;5040561;28;20801;-76
2023/05/14 06:28:05;;;;;;;14.60;13.20;;;11.80;99.90;;;;;;5041703;28;21010;-85
2023/05/14 06:30:33;;;;;;;13.00;11.07;;;12.10;99.90;;;;;;5036671;28;20859;-75
2023/05/14 06:33:00;;;;;;;12.23;11.03;;;12.10;99.90;;;;;;5037136;28;20456;-75
2023/05/14 06:35:27;;;;;;;11.77;10.57;;;12.30;99.90;;;;;;5035717;28;21163;-74
2023/05/14 06:37:54;;;;;;;14.17;12.77;;;12.40;99.90;;;;;;5033451;28;20518;-78
2023/05/14 06:40:21;;;;;;;11.37;10.30;;;12.60;99.90;;;;;;5031112;28;20446;-77
2023/05/14 06:42:48;;;;;;;12.63;11.57;;;12.60;99.90;;;;;;5048783;28;20510;-76
2023/05/14 06:45:17;;;;;;;12.83;10.20;;;12.70;99.90;;;;;;5032072;28;20574;-76
2023/05/14 06:47:45;;;;;;;13.53;12.27;;;12.80;99.90;;;;;;5040906;28;20462;-79
2023/05/14 06:50:12;;;;;;;12.37;11.13;;;12.90;99.90;;;;;;5045538;28;20463;-78
2023/05/14 06:52:39;;;;;;;12.20;11.13;;;12.80;99.90;;;;;;5048163;28;20465;-78
2023/05/14 06:55:07;;;;;;;11.00;10.00;;;12.80;99.90;;;;;;5051339;28;20460;-78
2023/05/14 06:57:34;;;;;;;10.93;9.90;;;12.70;99.90;;;;;;5046756;28;20530;-79
2023/05/14 07:00:01;;;;;;;12.47;9.80;;;12.60;99.90;;;;;;5043364;28;20820;-77
2023/05/14 07:02:28;;;;;;;11.50;10.33;;;12.50;99.90;;;;;;5044098;28;20533;-78
2023/05/14 07:04:56;;;;;;;11.40;9.43;;;12.50;99.90;;;;;;5052503;28;20519;-78
2023/05/14 07:07:23;;;;;;;11.30;10.20;;;12.40;99.90;;;;;;5046787;28;20468;-79
2023/05/14 07:09:50;;;;;;;12.17;10.93;;;12.40;99.90;;;;;;5051600;28;20514;-78
2023/05/14 07:12:17;;;;;;;12.17;11.07;;;12.30;99.90;;;;;;5046522;28;20526;-77
2023/05/14 07:14:45;;;;;;;13.17;11.10;;;12.30;99.90;;;;;;5038981;28;21031;-78
2023/05/14 07:17:12;;;;;;;11.73;10.53;;;12.40;99.90;;;;;;5038810;28;20460;-79
2023/05/14 07:19:39;;;;;;;11.77;10.57;;;12.20;99.90;;;;;;5040873;28;20523;-78
2023/05/14 07:22:08;;;;;;;15.27;12.10;;;12.40;99.90;;;;;;5050400;28;20927;-77
2023/05/14 07:24:35;;;;;;;12.20;11.00;;;12.30;99.90;;;;;;5041335;28;20472;-80
2023/05/14 07:27:02;;;;;;;13.00;11.80;;;12.30;99.90;;;;;;5045952;28;20456;-77
2023/05/14 07:29:29;;;;;;;12.73;11.50;;;12.30;99.90;;;;;;5048021;28;20869;-81
2023/05/14 07:31:56;;;;;;;12.00;10.67;;;12.30;99.90;;;;;;5044151;28;21016;-79
2023/05/14 07:34:23;;;;;;;13.07;11.07;;;12.20;99.90;;;;;;5044525;28;20515;-77
2023/05/14 07:36:50;;;;;;;15.80;12.10;;;12.40;99.90;;;;;;5041943;28;20990;-79
2023/05/14 07:39:18;;;;;;;11.47;10.37;;;12.40;99.90;;;;;;5049830;28;20453;-79
2023/05/14 07:41:45;;;;;;;15.80;11.77;;;12.60;99.90;;;;;;5035937;28;20450;-78
2023/05/14 07:44:12;;;;;;;13.50;12.20;;;12.90;99.90;;;;;;5043951;28;20872;-80
2023/05/14 07:46:39;;;;;;;12.13;10.73;;;13.10;99.90;;;;;;5051389;28;20484;-79
2023/05/14 07:49:06;;;;;;;12.40;11.20;;;13.20;99.90;;;;;;5042784;28;20543;-77
2023/05/14 07:51:33;;;;;;;11.90;10.80;;;13.30;99.90;;;;;;5043496;28;20462;-80
2023/05/14 07:54:01;;;;;;;12.13;10.93;;;13.30;99.90;;;;;;5050479;28;20520;-80
2023/05/14 07:56:29;;;;;;;12.63;11.43;;;13.30;99.90;;;;;;5056215;28;20441;-77
2023/05/14 07:58:56;;;;;;;11.67;10.63;;;13.30;99.90;;;;;;5052169;28;20465;-78
2023/05/14 08:01:23;;;;;;;11.73;10.53;;;13.10;99.90;;;;;;5041997;28;20454;-78
2023/05/14 08:03:50;;;;;;;12.07;10.90;;;13.30;99.90;;;;;;5051477;28;20789;-78
2023/05/14 08:06:19;;;;;;;12.03;10.80;;;13.20;99.90;;;;;;5030707;28;20871;-78
2023/05/14 08:08:46;;;;;;;11.50;10.50;;;13.30;99.90;;;;;;5052596;28;20813;-78
2023/05/14 08:11:13;;;;;;;13.00;11.37;;;13.20;99.90;;;;;;5045022;28;20460;-78
2023/05/14 08:13:42;;;;;;;14.77;13.27;;;13.20;99.90;;;;;;5053208;28;20865;-79
2023/05/14 08:16:10;;;;;;;10.90;9.90;;;13.00;99.90;;;;;;5046279;28;20515;-77
2023/05/14 08:18:37;;;;;;;13.90;12.60;;;13.20;99.90;;;;;;5042163;28;20465;-77
2023/05/14 08:21:04;;;;;;;13.37;12.07;;;13.20;99.90;;;;;;5045383;28;21175;-77
2023/05/14 08:23:31;;;;;;;15.23;11.43;;;13.20;99.90;;;;;;5044668;28;20445;-77
2023/05/14 08:25:58;;;;;;;14.07;12.63;;;13.10;99.90;;;;;;5049789;28;20479;-78
2023/05/14 08:28:25;;;;;;;13.40;11.60;;;13.10;99.90;;;;;;5036884;28;20459;-78
2023/05/14 08:30:54;;;;;;;12.17;10.97;;;13.00;99.90;;;;;;5039743;28;20528;-76
2023/05/14 08:33:20;;;;;;;12.33;11.00;;;13.10;99.90;;;;;;5042790;28;20453;-80
2023/05/14 08:35:47;;;;;;;12.10;10.93;;;13.00;99.90;;;;;;5053348;28;20556;-78
2023/05/14 08:38:14;;;;;;;12.27;11.17;;;13.00;99.90;;;;;;5042334;28;20457;-77
2023/05/14 08:40:42;;;;;;;11.57;10.37;;;12.80;99.90;;;;;;5043440;28;21212;-78
2023/05/14 08:43:11;;;;;;;12.00;10.80;;;12.70;99.90;;;;;;5041749;28;20936;-78
2023/05/14 08:45:40;;;;;;;13.27;11.97;;;12.80;99.90;;;;;;5040756;28;20475;-79
2023/05/14 08:48:14;;;;;;;10.43;9.30;;;12.60;99.90;;;;;;5038738;28;20495;-79
2023/05/14 08:50:42;;;;;;;13.03;11.73;;;12.80;99.90;;;;;;5039061;28;20570;-78
2023/05/14 08:53:09;;;;;;;11.10;10.00;;;12.80;99.90;;;;;;5040742;28;20454;-78
2023/05/14 08:55:37;;;;;;;10.23;9.30;;;13.00;99.90;;;;;;5048060;28;20476;-79
2023/05/14 08:58:04;;;;;;;12.03;11.03;;;13.30;99.90;;;;;;5042722;28;20534;-77
2023/05/14 09:00:31;;;;;;;10.67;9.80;;;13.60;99.90;;;;;;5044863;28;20437;-80
2023/05/14 09:02:59;;;;;;;11.30;9.40;;;13.50;99.90;;;;;;5043004;28;20469;-78
2023/05/14 09:05:28;;;;;;;10.30;9.40;;;13.70;99.90;;;;;;5033615;28;20489;-77
2023/05/14 09:07:55;;;;;;;10.47;9.57;;;13.40;99.90;;;;;;5026913;28;20512;-80
2023/05/14 09:10:22;;;;;;;8.13;7.37;;;13.30;99.90;;;;;;5041424;28;20470;-79
2023/05/14 09:12:49;;;;;;;11.40;10.23;;;12.90;99.90;;;;;;5037019;28;20873;-78
2023/05/14 09:15:16;;;;;;;10.63;9.80;;;12.70;99.90;;;;;;5044160;28;20488;-77
2023/05/14 09:17:43;;;;;;;13.43;12.13;;;12.70;99.90;;;;;;5049183;28;20865;-78
2023/05/14 09:20:13;;;;;;;11.50;10.40;;;12.60;99.90;;;;;;5042067;28;20465;-77
2023/05/14 09:22:41;;;;;;;15.17;7.83;;;12.60;99.90;;;;;;5043581;28;20465;-80
2023/05/14 09:25:10;;;;;;;10.40;9.27;;;12.40;99.90;;;;;;5044498;28;20468;-78
2023/05/14 09:27:38;;;;;;;8.80;7.90;;;12.30;99.90;;;;;;5045475;28;20461;-79
2023/05/14 09:30:09;;;;;;;9.03;8.23;;;12.40;99.90;;;;;;5039763;28;20469;-78
2023/05/14 09:32:37;;;;;;;9.90;9.00;;;12.50;99.90;;;;;;5034256;28;20458;-79
2023/05/14 09:35:13;;;;;;;9.37;7.87;;;12.50;99.90;;;;;;5037196;28;20448;-78
2023/05/14 09:37:43;;;;;;;10.00;9.00;;;12.60;99.90;;;;;;5041774;28;20461;-77
2023/05/14 09:40:11;;;;;;;9.00;8.20;;;12.40;99.90;;;;;;5037219;28;20446;-77
2023/05/14 09:42:38;;;;;;;8.50;7.70;;;12.40;99.90;;;;;;5040015;28;20547;-78
2023/05/14 09:45:06;;;;;;;10.67;9.67;;;12.30;99.90;;;;;;5040265;28;20480;-77
2023/05/14 09:47:34;;;;;;;8.13;7.43;;;12.10;99.90;;;;;;5047020;28;20825;-77
2023/05/14 09:50:02;;;;;;;9.63;8.83;;;12.00;99.90;;;;;;5043032;28;20445;-77
2023/05/14 09:52:29;;;;;;;11.17;8.80;;;12.00;99.90;;;;;;5042997;28;20452;-78
2023/05/14 09:54:57;;;;;;;10.33;9.33;;;11.80;99.90;;;;;;5041286;28;20441;-77
2023/05/14 09:57:25;;;;;;;11.83;10.77;;;11.80;99.90;;;;;;5044266;28;20741;-78
2023/05/14 09:59:52;;;;;;;10.63;9.77;;;11.70;99.90;;;;;;5041977;28;20495;-77
2023/05/14 10:02:24;;;;;;;11.23;10.23;;;11.80;99.90;;;;;;5045782;28;20464;-77
2023/05/14 10:04:56;;;;;;;10.23;9.27;;;11.70;99.90;;;;;;5041000;28;20562;-77
2023/05/14 10:07:27;;;;;;;11.43;10.40;;;11.70;99.90;;;;;;5044573;28;20481;-79
2023/05/14 10:10:00;;;;;;;11.13;10.13;;;11.60;99.90;;;;;;5046654;28;20514;-77
2023/05/14 10:12:32;;;;;;;12.97;11.63;;;11.60;99.90;;;;;;5046510;28;20464;-79
2023/05/14 10:15:03;;;;;;;14.60;13.20;;;11.40;99.90;;;;;;5038802;28;21144;-79
2023/05/14 10:17:32;;;;;;;12.70;11.50;;;11.40;99.90;;;;;;5038397;28;20527;-78
2023/05/14 10:20:01;;;;;;;13.67;12.37;;;11.30;99.90;;;;;;5036474;28;20462;-77
2023/05/14 10:22:33;;;;;;;27.33;22.80;;;11.40;99.90;;;;;;5039767;28;20873;-77
2023/05/14 10:25:03;;;;;;;27.77;21.80;;;11.30;99.90;;;;;;5038264;28;20524;-78
2023/05/14 10:27:30;;;;;;;40.97;33.17;;;11.30;99.90;;;;;;5047274;28;21032;-79
2023/05/14 10:29:57;;;;;;;29.87;24.43;;;11.10;99.90;;;;;;5042734;28;20434;-78
2023/05/14 10:32:25;;;;;;;16.80;15.17;;;11.20;99.90;;;;;;5033944;28;20465;-78
2023/05/14 10:34:53;;;;;;;14.47;13.07;;;11.20;99.90;;;;;;5038622;28;20832;-78
2023/05/14 10:37:23;;;;;;;14.10;12.90;;;11.30;99.90;;;;;;5048184;28;20508;-77
2023/05/14 10:39:52;;;;;;;11.30;10.33;;;11.20;99.90;;;;;;5036141;28;20508;-78
2023/05/14 10:42:22;;;;;;;12.10;11.00;;;11.10;99.90;;;;;;5046820;28;20542;-78
2023/05/14 10:44:53;;;;;;;11.80;10.77;;;11.00;99.90;;;;;;5042857;28;20491;-78
2023/05/14 10:47:20;;;;;;;10.17;9.37;;;11.00;99.90;;;;;;5042851;28;20508;-78
2023/05/14 10:49:48;;;;;;;10.50;9.50;;;11.00;99.90;;;;;;5043676;28;20520;-76
2023/05/14 10:52:20;;;;;;;9.13;8.33;;;11.00;99.90;;;;;;5051183;28;20547;-78
2023/05/14 10:54:52;;;;;;;9.80;8.90;;;10.90;99.90;;;;;;5048491;28;20452;-78
2023/05/14 10:57:22;;;;;;;9.33;8.43;;;11.00;99.90;;;;;;5046657;28;20457;-78
2023/05/14 10:59:51;;;;;;;9.80;8.90;;;11.10;99.90;;;;;;5042679;28;20457;-80
2023/05/14 11:02:23;;;;;;;8.67;7.77;;;11.10;99.90;;;;;;5057143;28;20462;-78
2023/05/14 11:04:57;;;;;;;8.93;8.13;;;11.20;99.90;;;;;;5047482;28;20461;-78
2023/05/14 11:07:29;;;;;;;10.83;9.83;;;11.20;99.90;;;;;;5050908;28;20494;-80
2023/05/14 11:10:04;;;;;;;9.27;8.47;;;11.10;99.90;;;;;;5056867;28;20452;-78
2023/05/14 11:12:33;;;;;;;8.77;8.07;;;11.20;99.90;;;;;;5044366;28;20467;-76
2023/05/14 11:15:02;;;;;;;7.53;6.83;;;11.10;99.90;;;;;;5047271;28;20488;-77
2023/05/14 11:17:30;;;;;;;7.30;6.67;;;11.00;99.90;;;;;;5048575;28;20541;-75
2023/05/14 11:19:58;;;;;;;5.67;5.27;;;10.90;99.90;;;;;;5054093;28;20465;-77
2023/05/14 11:22:25;;;;;;;6.30;5.90;;;10.80;99.90;;;;;;5051314;28;20486;-78
2023/05/14 11:24:52;;;;;;;6.60;5.77;;;10.90;99.90;;;;;;5043388;28;20512;-78
2023/05/14 11:27:21;;;;;;;7.87;7.27;;;11.00;99.90;;;;;;5047362;28;20512;-80
2023/05/14 11:29:50;;;;;;;7.00;6.43;;;10.90;99.90;;;;;;5051293;28;20461;-76
2023/05/14 11:32:18;;;;;;;7.70;7.10;;;11.10;99.90;;;;;;5040767;28;20450;-78
2023/05/14 11:34:46;;;;;;;6.30;5.80;;;11.00;99.90;;;;;;5043091;28;20457;-77
2023/05/14 11:37:14;;;;;;;6.07;5.53;;;10.90;99.90;;;;;;5043503;28;20576;-79
2023/05/14 11:39:47;;;;;;;5.00;4.70;;;10.90;99.90;;;;;;5038114;28;20564;-81
2023/05/14 11:42:17;;;;;;;5.07;4.67;;;10.80;99.90;;;;;;5038983;28;20542;-79
2023/05/14 11:44:44;;;;;;;3.57;3.37;;;10.80;99.90;;;;;;5038420;28;20481;-79
2023/05/14 11:47:13;;;;;;;5.50;5.00;;;10.90;99.90;;;;;;5042060;28;21199;-79
2023/05/14 11:49:40;;;;;;;11.37;10.47;;;10.80;99.90;;;;;;5038709;28;20547;-78
2023/05/14 11:52:09;;;;;;;6.13;5.67;;;10.80;99.90;;;;;;5041297;28;20462;-78
2023/05/14 11:54:36;;;;;;;5.23;4.80;;;10.80;99.90;;;;;;5040992;28;20458;-79
2023/05/14 11:57:07;;;;;;;4.10;3.80;;;10.80;99.90;;;;;;5039431;28;20466;-79
2023/05/14 11:59:34;;;;;;;4.70;4.33;;;10.70;99.90;;;;;;5036360;28;20461;-81
2023/05/14 12:02:02;;;;;;;2.83;2.63;;;10.60;99.90;;;;;;5036562;28;20524;-80
2023/05/14 12:04:30;;;;;;;4.03;3.73;;;10.60;99.90;;;;;;5042728;28;20438;-79
2023/05/14 12:06:59;;;;;;;3.00;2.90;;;10.70;99.90;;;;;;5039046;28;20485;-78
2023/05/14 12:09:26;;;;;;;2.87;2.67;;;10.80;99.90;;;;;;5033858;28;20932;-78
2023/05/14 12:11:53;;;;;;;3.40;3.20;;;10.80;99.90;;;;;;5036215;28;20523;-78
2023/05/14 12:14:21;;;;;;;2.43;2.33;;;10.90;99.90;;;;;;5028511;28;20446;-78
2023/05/14 12:16:49;;;;;;;2.37;2.17;;;10.90;99.90;;;;;;5033671;28;20524;-80
2023/05/14 12:19:17;;;;;;;1.60;1.50;;;10.90;99.90;;;;;;5040958;28;20944;-80
2023/05/14 12:21:49;;;;;;;2.00;1.90;;;10.80;99.90;;;;;;5035241;28;20453;-79
2023/05/14 12:24:18;;;;;;;1.40;1.33;;;10.90;99.90;;;;;;5035790;28;20494;-78
2023/05/14 12:26:45;;;;;;;1.87;1.77;;;10.90;99.90;;;;;;5040559;28;20486;-78
2023/05/14 12:29:13;;;;;;;2.80;2.60;;;10.90;99.90;;;;;;5034415;28;20514;-78
2023/05/14 12:31:46;;;;;;;2.33;2.13;;;10.90;99.90;;;;;;5040843;28;20513;-80
2023/05/14 12:34:13;;;;;;;4.40;4.10;;;11.00;99.90;;;;;;5044402;28;20845;-78
2023/05/14 12:36:40;;;;;;;2.40;2.30;;;11.10;99.90;;;;;;5040233;28;20465;-80